OIZC

Details ICAO OIZC (ZBR)
Name CHAH BAHAR
Region Iran
Timezone Asia/Tehran (UTC+3.5)
Plans Departing 9
Arriving 10
Stats Elevation 43 ft / 13 m (AMSL)
Location 25.443349° 60.382115°
Runways 2
Magnetic Variation 1.571° E
Sunrise 2017-01-23 02:46:08 UTC / 2017-01-23 06:16:08 Local
Sunset 2017-01-23 13:36:44 UTC / 2017-01-23 17:06:44 Local
Advertisement - Login to hide

Runways

ID Width Length Bearing (true) Bearing (mag) Surface Threshold Offset Overrun Length
09L 150 ft / 46 m 12,496 ft / 3,809 m 90.91° 89.34° Asphalt 0 ft / 0 m 1,181 ft / 360 m
09R 150 ft / 46 m 9,829 ft / 2,996 m 90.93° 89.36° Asphalt 0 ft / 0 m 1,181 ft / 360 m
27L 150 ft / 46 m 9,829 ft / 2,996 m 270.94° 269.37° Asphalt 0 ft / 0 m 1,181 ft / 360 m
27R 150 ft / 46 m 12,496 ft / 3,809 m 270.93° 269.36° Asphalt 0 ft / 0 m 1,181 ft / 360 m

Map

Weather

Temperature
Clouds and Precipitation
Forecast for 2017-01-23 18:00 UTC. Updated an hour ago
Winds

METAR

Not found

TAF

TAF OIZC 231730Z 2318/2424 08005MPS 4000 BR FEW030CB SCT035 BKN070 BECMG 2321/2323 2000 BR BKN020 TEMPO 2320/2403 0800 FG BKN008 BECMG 2404/2406 4000 BR RA FEW030CB FEW035 BKN090 BECMG 2418/2420 2000 BR BKN020

Frequencies

Tower 121.70 MHz TWR
Approach 134.10 MHz APP
Tower 125.20 MHz TWR
Warning: Do not use this data for real-world aviation or navigation. No guarantee of current accuracy is given.